sensor_id;sensor_type;location;lat;lon;timestamp;P1;durP1;ratioP1;P2;durP2;ratioP2
41927;SDS011;27616;51.420;6.788;2023-03-11T00:00:24;8.33;;;2.17;;
41927;SDS011;27616;51.420;6.788;2023-03-11T00:02:52;8.00;;;2.40;;
41927;SDS011;27616;51.420;6.788;2023-03-11T00:05:21;9.93;;;2.80;;
41927;SDS011;27616;51.420;6.788;2023-03-11T00:07:48;11.07;;;2.53;;
41927;SDS011;27616;51.420;6.788;2023-03-11T00:10:14;8.00;;;2.57;;
41927;SDS011;27616;51.420;6.788;2023-03-11T00:12:42;9.20;;;2.83;;
41927;SDS011;27616;51.420;6.788;2023-03-11T00:15:08;9.67;;;2.70;;
41927;SDS011;27616;51.420;6.788;2023-03-11T00:17:35;4.87;;;2.33;;
41927;SDS011;27616;51.420;6.788;2023-03-11T00:20:01;8.23;;;3.20;;
41927;SDS011;27616;51.420;6.788;2023-03-11T00:22:28;7.27;;;2.30;;
41927;SDS011;27616;51.420;6.788;2023-03-11T00:24:53;5.63;;;2.07;;
41927;SDS011;27616;51.420;6.788;2023-03-11T00:27:19;5.30;;;1.80;;
41927;SDS011;27616;51.420;6.788;2023-03-11T00:29:45;4.17;;;1.80;;
41927;SDS011;27616;51.420;6.788;2023-03-11T00:32:11;6.47;;;2.60;;
41927;SDS011;27616;51.420;6.788;2023-03-11T00:34:36;7.90;;;2.00;;
41927;SDS011;27616;51.420;6.788;2023-03-11T00:37:02;7.47;;;2.07;;
41927;SDS011;27616;51.420;6.788;2023-03-11T00:39:28;6.50;;;2.67;;
41927;SDS011;27616;51.420;6.788;2023-03-11T00:41:54;8.47;;;2.00;;
41927;SDS011;27616;51.420;6.788;2023-03-11T00:44:20;7.63;;;2.43;;
41927;SDS011;27616;51.420;6.788;2023-03-11T00:46:46;6.90;;;2.00;;
41927;SDS011;27616;51.420;6.788;2023-03-11T00:49:12;6.37;;;1.70;;
41927;SDS011;27616;51.420;6.788;2023-03-11T00:51:38;10.40;;;2.47;;
41927;SDS011;27616;51.420;6.788;2023-03-11T00:54:04;9.37;;;2.30;;
41927;SDS011;27616;51.420;6.788;2023-03-11T00:56:30;9.10;;;2.60;;
41927;SDS011;27616;51.420;6.788;2023-03-11T00:58:56;8.80;;;2.67;;
41927;SDS011;27616;51.420;6.788;2023-03-11T01:01:22;8.17;;;2.37;;
41927;SDS011;27616;51.420;6.788;2023-03-11T01:03:49;8.03;;;2.30;;
41927;SDS011;27616;51.420;6.788;2023-03-11T01:06:15;5.73;;;2.13;;
41927;SDS011;27616;51.420;6.788;2023-03-11T01:08:41;9.13;;;2.50;;
41927;SDS011;27616;51.420;6.788;2023-03-11T01:11:07;8.60;;;2.27;;
41927;SDS011;27616;51.420;6.788;2023-03-11T01:13:33;10.17;;;2.20;;
41927;SDS011;27616;51.420;6.788;2023-03-11T01:15:59;11.60;;;2.07;;
41927;SDS011;27616;51.420;6.788;2023-03-11T01:18:25;9.10;;;2.47;;
41927;SDS011;27616;51.420;6.788;2023-03-11T01:20:52;9.50;;;1.80;;
41927;SDS011;27616;51.420;6.788;2023-03-11T01:23:18;8.33;;;1.70;;
41927;SDS011;27616;51.420;6.788;2023-03-11T01:25:46;9.60;;;2.00;;
41927;SDS011;27616;51.420;6.788;2023-03-11T01:28:11;9.53;;;1.87;;
41927;SDS011;27616;51.420;6.788;2023-03-11T01:30:39;7.07;;;1.73;;
41927;SDS011;27616;51.420;6.788;2023-03-11T01:33:06;8.13;;;2.00;;
41927;SDS011;27616;51.420;6.788;2023-03-11T01:35:37;10.03;;;2.20;;
41927;SDS011;27616;51.420;6.788;2023-03-11T01:38:04;6.20;;;1.87;;
41927;SDS011;27616;51.420;6.788;2023-03-11T01:40:34;6.30;;;2.00;;
41927;SDS011;27616;51.420;6.788;2023-03-11T01:46:09;9.03;;;2.20;;
41927;SDS011;27616;51.420;6.788;2023-03-11T01:49:03;10.83;;;2.60;;
41927;SDS011;27616;51.420;6.788;2023-03-11T01:51:34;8.97;;;2.73;;
41927;SDS011;27616;51.420;6.788;2023-03-11T01:54:05;12.47;;;2.27;;
41927;SDS011;27616;51.420;6.788;2023-03-11T01:56:35;11.33;;;2.40;;
41927;SDS011;27616;51.420;6.788;2023-03-11T01:59:03;14.33;;;3.00;;
41927;SDS011;27616;51.420;6.788;2023-03-11T02:01:30;19.17;;;4.27;;
41927;SDS011;27616;51.420;6.788;2023-03-11T02:04:01;22.30;;;5.37;;
41927;SDS011;27616;51.420;6.788;2023-03-11T02:06:27;20.00;;;4.97;;
41927;SDS011;27616;51.420;6.788;2023-03-11T02:08:56;14.83;;;3.90;;
41927;SDS011;27616;51.420;6.788;2023-03-11T02:11:23;15.30;;;3.00;;
41927;SDS011;27616;51.420;6.788;2023-03-11T02:13:51;14.00;;;3.00;;
41927;SDS011;27616;51.420;6.788;2023-03-11T02:16:23;15.73;;;2.77;;
41927;SDS011;27616;51.420;6.788;2023-03-11T02:18:49;11.40;;;2.30;;
41927;SDS011;27616;51.420;6.788;2023-03-11T02:26:22;11.30;;;2.43;;
41927;SDS011;27616;51.420;6.788;2023-03-11T02:28:54;11.63;;;2.60;;
41927;SDS011;27616;51.420;6.788;2023-03-11T02:31:21;14.23;;;2.57;;
41927;SDS011;27616;51.420;6.788;2023-03-11T02:33:49;12.90;;;3.43;;
41927;SDS011;27616;51.420;6.788;2023-03-11T02:36:36;17.17;;;4.43;;
41927;SDS011;27616;51.420;6.788;2023-03-11T02:39:05;21.10;;;3.53;;
41927;SDS011;27616;51.420;6.788;2023-03-11T02:41:33;21.63;;;3.57;;
41927;SDS011;27616;51.420;6.788;2023-03-11T02:44:03;17.37;;;3.13;;
41927;SDS011;27616;51.420;6.788;2023-03-11T02:46:34;11.47;;;3.10;;
41927;SDS011;27616;51.420;6.788;2023-03-11T02:49:01;9.57;;;2.27;;
41927;SDS011;27616;51.420;6.788;2023-03-11T02:51:27;10.80;;;2.53;;
41927;SDS011;27616;51.420;6.788;2023-03-11T02:53:54;8.23;;;1.90;;
41927;SDS011;27616;51.420;6.788;2023-03-11T02:56:24;10.30;;;2.27;;
41927;SDS011;27616;51.420;6.788;2023-03-11T02:58:49;9.97;;;2.10;;
41927;SDS011;27616;51.420;6.788;2023-03-11T03:01:15;9.23;;;2.03;;
41927;SDS011;27616;51.420;6.788;2023-03-11T03:03:43;6.73;;;1.60;;
41927;SDS011;27616;51.420;6.788;2023-03-11T03:06:09;9.67;;;1.90;;
41927;SDS011;27616;51.420;6.788;2023-03-11T03:08:36;6.80;;;2.37;;
41927;SDS011;27616;51.420;6.788;2023-03-11T03:11:02;12.67;;;2.23;;
41927;SDS011;27616;51.420;6.788;2023-03-11T03:13:28;16.87;;;2.03;;
41927;SDS011;27616;51.420;6.788;2023-03-11T03:15:55;11.27;;;1.80;;
41927;SDS011;27616;51.420;6.788;2023-03-11T03:18:21;7.73;;;1.73;;
41927;SDS011;27616;51.420;6.788;2023-03-11T03:20:46;9.30;;;2.00;;
41927;SDS011;27616;51.420;6.788;2023-03-11T03:23:14;14.90;;;2.10;;
41927;SDS011;27616;51.420;6.788;2023-03-11T03:25:41;4.90;;;1.63;;
41927;SDS011;27616;51.420;6.788;2023-03-11T03:28:09;7.53;;;1.53;;
41927;SDS011;27616;51.420;6.788;2023-03-11T03:30:37;12.88;;;2.00;;
41927;SDS011;27616;51.420;6.788;2023-03-11T03:33:03;10.47;;;1.73;;
41927;SDS011;27616;51.420;6.788;2023-03-11T03:35:30;14.93;;;1.43;;
41927;SDS011;27616;51.420;6.788;2023-03-11T03:38:06;5.37;;;1.73;;
41927;SDS011;27616;51.420;6.788;2023-03-11T03:40:32;8.87;;;1.70;;
41927;SDS011;27616;51.420;6.788;2023-03-11T03:43:01;9.10;;;1.50;;
41927;SDS011;27616;51.420;6.788;2023-03-11T03:45:29;7.60;;;1.53;;
41927;SDS011;27616;51.420;6.788;2023-03-11T03:47:56;9.10;;;2.03;;
41927;SDS011;27616;51.420;6.788;2023-03-11T03:50:23;6.80;;;1.40;;
41927;SDS011;27616;51.420;6.788;2023-03-11T03:52:51;7.57;;;1.60;;
41927;SDS011;27616;51.420;6.788;2023-03-11T03:55:19;9.33;;;1.70;;
41927;SDS011;27616;51.420;6.788;2023-03-11T03:57:45;9.67;;;1.60;;
41927;SDS011;27616;51.420;6.788;2023-03-11T04:00:12;9.47;;;1.73;;
41927;SDS011;27616;51.420;6.788;2023-03-11T04:02:44;5.53;;;1.50;;
41927;SDS011;27616;51.420;6.788;2023-03-11T04:05:19;7.77;;;1.73;;
41927;SDS011;27616;51.420;6.788;2023-03-11T04:07:45;8.03;;;1.60;;
41927;SDS011;27616;51.420;6.788;2023-03-11T04:10:12;10.70;;;1.80;;
41927;SDS011;27616;51.420;6.788;2023-03-11T04:12:40;8.55;;;2.15;;
41927;SDS011;27616;51.420;6.788;2023-03-11T04:15:06;14.27;;;2.40;;
41927;SDS011;27616;51.420;6.788;2023-03-11T04:17:34;11.60;;;2.53;;
41927;SDS011;27616;51.420;6.788;2023-03-11T04:20:00;9.63;;;2.77;;
41927;SDS011;27616;51.420;6.788;2023-03-11T04:22:26;11.97;;;2.20;;
41927;SDS011;27616;51.420;6.788;2023-03-11T04:24:52;9.60;;;2.20;;
41927;SDS011;27616;51.420;6.788;2023-03-11T04:27:18;13.70;;;2.03;;
41927;SDS011;27616;51.420;6.788;2023-03-11T04:29:44;7.83;;;2.47;;
41927;SDS011;27616;51.420;6.788;2023-03-11T04:32:09;14.70;;;2.10;;
41927;SDS011;27616;51.420;6.788;2023-03-11T04:34:36;7.20;;;1.77;;
41927;SDS011;27616;51.420;6.788;2023-03-11T04:37:02;14.93;;;2.77;;
41927;SDS011;27616;51.420;6.788;2023-03-11T04:39:32;10.10;;;2.28;;
41927;SDS011;27616;51.420;6.788;2023-03-11T04:41:57;15.43;;;3.10;;
41927;SDS011;27616;51.420;6.788;2023-03-11T04:44:25;14.27;;;2.60;;
41927;SDS011;27616;51.420;6.788;2023-03-11T04:46:51;15.67;;;2.60;;
41927;SDS011;27616;51.420;6.788;2023-03-11T04:49:16;11.23;;;2.83;;
41927;SDS011;27616;51.420;6.788;2023-03-11T04:51:43;13.47;;;3.30;;
41927;SDS011;27616;51.420;6.788;2023-03-11T04:54:10;13.03;;;3.27;;
41927;SDS011;27616;51.420;6.788;2023-03-11T04:56:37;12.17;;;3.23;;
41927;SDS011;27616;51.420;6.788;2023-03-11T04:59:04;8.23;;;2.60;;
41927;SDS011;27616;51.420;6.788;2023-03-11T05:01:32;14.77;;;2.87;;
41927;SDS011;27616;51.420;6.788;2023-03-11T05:04:01;11.55;;;2.22;;
41927;SDS011;27616;51.420;6.788;2023-03-11T05:06:27;13.57;;;2.33;;
41927;SDS011;27616;51.420;6.788;2023-03-11T05:08:53;11.40;;;2.10;;
41927;SDS011;27616;51.420;6.788;2023-03-11T05:11:19;9.63;;;2.10;;
41927;SDS011;27616;51.420;6.788;2023-03-11T05:13:46;9.87;;;1.90;;
41927;SDS011;27616;51.420;6.788;2023-03-11T05:16:12;7.20;;;1.63;;
41927;SDS011;27616;51.420;6.788;2023-03-11T05:18:38;10.83;;;2.00;;
41927;SDS011;27616;51.420;6.788;2023-03-11T05:21:04;13.23;;;2.50;;
41927;SDS011;27616;51.420;6.788;2023-03-11T05:23:33;14.27;;;2.47;;
41927;SDS011;27616;51.420;6.788;2023-03-11T05:25:59;8.03;;;2.20;;
41927;SDS011;27616;51.420;6.788;2023-03-11T05:28:26;9.20;;;2.07;;
41927;SDS011;27616;51.420;6.788;2023-03-11T05:30:53;11.40;;;1.93;;
41927;SDS011;27616;51.420;6.788;2023-03-11T05:33:19;8.37;;;1.80;;
41927;SDS011;27616;51.420;6.788;2023-03-11T05:35:46;10.53;;;2.13;;
41927;SDS011;27616;51.420;6.788;2023-03-11T05:38:12;10.73;;;2.03;;
41927;SDS011;27616;51.420;6.788;2023-03-11T05:40:38;16.20;;;2.83;;
41927;SDS011;27616;51.420;6.788;2023-03-11T05:43:04;14.40;;;3.70;;
41927;SDS011;27616;51.420;6.788;2023-03-11T05:45:34;11.47;;;3.30;;
41927;SDS011;27616;51.420;6.788;2023-03-11T05:48:00;11.70;;;3.40;;
41927;SDS011;27616;51.420;6.788;2023-03-11T05:50:27;12.80;;;3.37;;
41927;SDS011;27616;51.420;6.788;2023-03-11T05:52:54;15.80;;;3.47;;
41927;SDS011;27616;51.420;6.788;2023-03-11T05:55:21;18.17;;;3.23;;
41927;SDS011;27616;51.420;6.788;2023-03-11T05:57:49;14.27;;;3.17;;
41927;SDS011;27616;51.420;6.788;2023-03-11T06:00:15;15.50;;;3.70;;
41927;SDS011;27616;51.420;6.788;2023-03-11T06:02:47;14.13;;;3.00;;
41927;SDS011;27616;51.420;6.788;2023-03-11T06:05:16;13.77;;;2.90;;
41927;SDS011;27616;51.420;6.788;2023-03-11T06:07:43;11.30;;;3.20;;
41927;SDS011;27616;51.420;6.788;2023-03-11T06:10:09;11.10;;;3.30;;
41927;SDS011;27616;51.420;6.788;2023-03-11T06:12:37;9.40;;;2.33;;
41927;SDS011;27616;51.420;6.788;2023-03-11T06:15:17;9.33;;;2.80;;
41927;SDS011;27616;51.420;6.788;2023-03-11T06:17:43;13.03;;;2.60;;
41927;SDS011;27616;51.420;6.788;2023-03-11T06:20:10;12.10;;;2.30;;
41927;SDS011;27616;51.420;6.788;2023-03-11T06:22:36;10.60;;;2.23;;
41927;SDS011;27616;51.420;6.788;2023-03-11T06:25:02;6.50;;;2.03;;
41927;SDS011;27616;51.420;6.788;2023-03-11T06:27:30;13.17;;;2.00;;
41927;SDS011;27616;51.420;6.788;2023-03-11T06:29:56;14.63;;;2.10;;
41927;SDS011;27616;51.420;6.788;2023-03-11T06:32:23;7.53;;;2.07;;
41927;SDS011;27616;51.420;6.788;2023-03-11T06:34:50;8.93;;;1.93;;
41927;SDS011;27616;51.420;6.788;2023-03-11T06:37:16;7.73;;;2.00;;
41927;SDS011;27616;51.420;6.788;2023-03-11T06:39:42;11.33;;;2.40;;
41927;SDS011;27616;51.420;6.788;2023-03-11T06:42:12;10.57;;;1.97;;
41927;SDS011;27616;51.420;6.788;2023-03-11T06:44:40;8.60;;;2.00;;
41927;SDS011;27616;51.420;6.788;2023-03-11T06:47:07;13.80;;;2.20;;
41927;SDS011;27616;51.420;6.788;2023-03-11T06:49:33;7.90;;;1.90;;
41927;SDS011;27616;51.420;6.788;2023-03-11T06:51:59;13.87;;;1.90;;
41927;SDS011;27616;51.420;6.788;2023-03-11T06:54:25;9.40;;;2.10;;
41927;SDS011;27616;51.420;6.788;2023-03-11T06:56:51;8.23;;;2.17;;
41927;SDS011;27616;51.420;6.788;2023-03-11T06:59:17;9.27;;;2.37;;
41927;SDS011;27616;51.420;6.788;2023-03-11T07:01:43;9.03;;;2.73;;
41927;SDS011;27616;51.420;6.788;2023-03-11T07:04:09;12.17;;;2.73;;
41927;SDS011;27616;51.420;6.788;2023-03-11T07:06:37;8.40;;;2.40;;
41927;SDS011;27616;51.420;6.788;2023-03-11T07:09:19;8.23;;;2.40;;
41927;SDS011;27616;51.420;6.788;2023-03-11T07:11:46;8.40;;;1.93;;
41927;SDS011;27616;51.420;6.788;2023-03-11T07:14:19;9.90;;;2.10;;
41927;SDS011;27616;51.420;6.788;2023-03-11T07:16:49;9.40;;;2.47;;
41927;SDS011;27616;51.420;6.788;2023-03-11T07:19:35;6.27;;;2.10;;
41927;SDS011;27616;51.420;6.788;2023-03-11T07:22:01;7.53;;;2.00;;
41927;SDS011;27616;51.420;6.788;2023-03-11T07:24:27;6.90;;;2.13;;
41927;SDS011;27616;51.420;6.788;2023-03-11T07:26:52;8.93;;;2.17;;
41927;SDS011;27616;51.420;6.788;2023-03-11T07:29:18;8.13;;;2.53;;
41927;SDS011;27616;51.420;6.788;2023-03-11T07:31:44;10.47;;;2.87;;
41927;SDS011;27616;51.420;6.788;2023-03-11T07:34:10;8.20;;;2.73;;
41927;SDS011;27616;51.420;6.788;2023-03-11T07:36:40;9.33;;;2.50;;
41927;SDS011;27616;51.420;6.788;2023-03-11T07:39:06;8.20;;;2.03;;
41927;SDS011;27616;51.420;6.788;2023-03-11T07:41:32;7.63;;;2.30;;
41927;SDS011;27616;51.420;6.788;2023-03-11T07:44:00;7.60;;;2.00;;
41927;SDS011;27616;51.420;6.788;2023-03-11T07:46:27;12.93;;;2.40;;
41927;SDS011;27616;51.420;6.788;2023-03-11T07:48:53;12.47;;;3.43;;
41927;SDS011;27616;51.420;6.788;2023-03-11T07:51:24;8.10;;;2.63;;
41927;SDS011;27616;51.420;6.788;2023-03-11T07:53:52;8.97;;;2.33;;
41927;SDS011;27616;51.420;6.788;2023-03-11T07:56:19;12.13;;;3.17;;
41927;SDS011;27616;51.420;6.788;2023-03-11T07:58:47;8.85;;;2.65;;
41927;SDS011;27616;51.420;6.788;2023-03-11T08:01:14;12.93;;;2.90;;
41927;SDS011;27616;51.420;6.788;2023-03-11T08:03:42;13.80;;;3.27;;
41927;SDS011;27616;51.420;6.788;2023-03-11T08:08:45;11.00;;;2.73;;
41927;SDS011;27616;51.420;6.788;2023-03-11T08:11:12;13.43;;;4.00;;
41927;SDS011;27616;51.420;6.788;2023-03-11T08:13:39;12.43;;;2.80;;
41927;SDS011;27616;51.420;6.788;2023-03-11T08:16:07;9.63;;;2.50;;
41927;SDS011;27616;51.420;6.788;2023-03-11T08:18:33;7.37;;;2.77;;
41927;SDS011;27616;51.420;6.788;2023-03-11T08:21:03;6.80;;;2.33;;
41927;SDS011;27616;51.420;6.788;2023-03-11T08:23:33;11.97;;;2.20;;
41927;SDS011;27616;51.420;6.788;2023-03-11T08:26:05;10.67;;;2.77;;
41927;SDS011;27616;51.420;6.788;2023-03-11T08:28:32;8.73;;;1.97;;
41927;SDS011;27616;51.420;6.788;2023-03-11T08:30:58;7.77;;;2.17;;
41927;SDS011;27616;51.420;6.788;2023-03-11T08:33:24;5.90;;;1.73;;
41927;SDS011;27616;51.420;6.788;2023-03-11T08:35:50;7.30;;;2.10;;
41927;SDS011;27616;51.420;6.788;2023-03-11T08:38:15;7.20;;;2.17;;
41927;SDS011;27616;51.420;6.788;2023-03-11T08:40:41;11.47;;;2.67;;
41927;SDS011;27616;51.420;6.788;2023-03-11T08:43:07;8.70;;;2.20;;
41927;SDS011;27616;51.420;6.788;2023-03-11T08:45:38;8.32;;;1.95;;
41927;SDS011;27616;51.420;6.788;2023-03-11T08:48:04;10.90;;;2.97;;
41927;SDS011;27616;51.420;6.788;2023-03-11T08:50:30;6.30;;;1.57;;
41927;SDS011;27616;51.420;6.788;2023-03-11T08:52:55;5.67;;;1.70;;
41927;SDS011;27616;51.420;6.788;2023-03-11T08:55:24;6.53;;;1.60;;
41927;SDS011;27616;51.420;6.788;2023-03-11T08:57:52;8.97;;;1.90;;
41927;SDS011;27616;51.420;6.788;2023-03-11T09:00:18;9.83;;;2.17;;
41927;SDS011;27616;51.420;6.788;2023-03-11T09:02:44;13.93;;;1.80;;
41927;SDS011;27616;51.420;6.788;2023-03-11T09:05:10;6.20;;;1.33;;
41927;SDS011;27616;51.420;6.788;2023-03-11T09:07:35;5.30;;;1.47;;
41927;SDS011;27616;51.420;6.788;2023-03-11T09:10:02;6.43;;;1.30;;
41927;SDS011;27616;51.420;6.788;2023-03-11T09:12:28;7.63;;;1.90;;
41927;SDS011;27616;51.420;6.788;2023-03-11T09:14:54;6.27;;;1.20;;
41927;SDS011;27616;51.420;6.788;2023-03-11T09:17:20;4.80;;;1.40;;
41927;SDS011;27616;51.420;6.788;2023-03-11T09:19:46;5.10;;;1.40;;
41927;SDS011;27616;51.420;6.788;2023-03-11T09:22:12;9.83;;;1.50;;
41927;SDS011;27616;51.420;6.788;2023-03-11T09:24:38;6.60;;;1.40;;
41927;SDS011;27616;51.420;6.788;2023-03-11T09:27:03;6.87;;;1.70;;
41927;SDS011;27616;51.420;6.788;2023-03-11T09:29:29;4.77;;;1.33;;
41927;SDS011;27616;51.420;6.788;2023-03-11T09:31:55;8.83;;;1.90;;
41927;SDS011;27616;51.420;6.788;2023-03-11T09:34:21;5.10;;;1.50;;
41927;SDS011;27616;51.420;6.788;2023-03-11T09:36:47;6.47;;;1.30;;
41927;SDS011;27616;51.420;6.788;2023-03-11T09:39:13;6.77;;;1.10;;
41927;SDS011;27616;51.420;6.788;2023-03-11T09:41:46;5.20;;;1.37;;
41927;SDS011;27616;51.420;6.788;2023-03-11T09:52:39;7.73;;;1.20;;
41927;SDS011;27616;51.420;6.788;2023-03-11T09:55:20;6.53;;;1.70;;
41927;SDS011;27616;51.420;6.788;2023-03-11T09:57:58;8.80;;;2.33;;
41927;SDS011;27616;51.420;6.788;2023-03-11T10:00:27;7.20;;;1.58;;
41927;SDS011;27616;51.420;6.788;2023-03-11T10:02:52;7.53;;;1.80;;
41927;SDS011;27616;51.420;6.788;2023-03-11T10:05:21;9.00;;;2.15;;
41927;SDS011;27616;51.420;6.788;2023-03-11T10:07:56;6.68;;;2.53;;
41927;SDS011;27616;51.420;6.788;2023-03-11T10:10:42;6.38;;;2.17;;
41927;SDS011;27616;51.420;6.788;2023-03-11T10:13:24;7.88;;;1.98;;
41927;SDS011;27616;51.420;6.788;2023-03-11T10:19:03;5.85;;;1.58;;
41927;SDS011;27616;51.420;6.788;2023-03-11T10:24:44;6.82;;;1.48;;
41927;SDS011;27616;51.420;6.788;2023-03-11T10:27:20;6.95;;;1.50;;
41927;SDS011;27616;51.420;6.788;2023-03-11T10:30:03;4.35;;;1.65;;
41927;SDS011;27616;51.420;6.788;2023-03-11T10:32:37;7.13;;;1.48;;
41927;SDS011;27616;51.420;6.788;2023-03-11T10:35:20;6.18;;;1.23;;
41927;SDS011;27616;51.420;6.788;2023-03-11T10:37:56;6.75;;;1.33;;
41927;SDS011;27616;51.420;6.788;2023-03-11T10:40:31;7.15;;;1.48;;
41927;SDS011;27616;51.420;6.788;2023-03-11T10:43:00;9.40;;;1.40;;
41927;SDS011;27616;51.420;6.788;2023-03-11T10:45:32;5.10;;;1.73;;
41927;SDS011;27616;51.420;6.788;2023-03-11T10:48:09;3.70;;;1.00;;
41927;SDS011;27616;51.420;6.788;2023-03-11T10:50:41;7.65;;;1.45;;
41927;SDS011;27616;51.420;6.788;2023-03-11T10:53:22;7.05;;;1.20;;
41927;SDS011;27616;51.420;6.788;2023-03-11T10:55:49;6.80;;;1.33;;
41927;SDS011;27616;51.420;6.788;2023-03-11T10:58:19;9.47;;;1.30;;
41927;SDS011;27616;51.420;6.788;2023-03-11T11:03:42;5.60;;;1.15;;
41927;SDS011;27616;51.420;6.788;2023-03-11T11:06:23;8.15;;;1.30;;
41927;SDS011;27616;51.420;6.788;2023-03-11T11:09:09;3.88;;;1.38;;
41927;SDS011;27616;51.420;6.788;2023-03-11T11:12:00;5.75;;;1.40;;
41927;SDS011;27616;51.420;6.788;2023-03-11T11:14:43;4.40;;;1.23;;
41927;SDS011;27616;51.420;6.788;2023-03-11T11:17:18;8.13;;;1.40;;
41927;SDS011;27616;51.420;6.788;2023-03-11T11:19:49;6.40;;;1.57;;
41927;SDS011;27616;51.420;6.788;2023-03-11T11:22:18;7.10;;;1.30;;
41927;SDS011;27616;51.420;6.788;2023-03-11T11:24:45;4.05;;;1.20;;
41927;SDS011;27616;51.420;6.788;2023-03-11T11:29:47;5.30;;;1.40;;
41927;SDS011;27616;51.420;6.788;2023-03-11T11:32:36;7.37;;;1.77;;
41927;SDS011;27616;51.420;6.788;2023-03-11T11:35:12;5.03;;;1.40;;
41927;SDS011;27616;51.420;6.788;2023-03-11T11:38:00;7.20;;;1.40;;
41927;SDS011;27616;51.420;6.788;2023-03-11T11:40:30;5.70;;;1.50;;
41927;SDS011;27616;51.420;6.788;2023-03-11T11:43:04;4.93;;;1.30;;
41927;SDS011;27616;51.420;6.788;2023-03-11T11:45:38;7.20;;;1.50;;
41927;SDS011;27616;51.420;6.788;2023-03-11T11:50:46;5.53;;;1.42;;
41927;SDS011;27616;51.420;6.788;2023-03-11T11:55:50;6.40;;;1.50;;
41927;SDS011;27616;51.420;6.788;2023-03-11T11:58:18;6.22;;;1.52;;
41927;SDS011;27616;51.420;6.788;2023-03-11T12:03:32;7.38;;;2.42;;
41927;SDS011;27616;51.420;6.788;2023-03-11T12:06:28;10.98;;;2.50;;
41927;SDS011;27616;51.420;6.788;2023-03-11T12:16:55;3.87;;;1.00;;
41927;SDS011;27616;51.420;6.788;2023-03-11T12:27:52;14.67;;;2.47;;
41927;SDS011;27616;51.420;6.788;2023-03-11T12:30:41;8.27;;;2.07;;
41927;SDS011;27616;51.420;6.788;2023-03-11T12:33:16;9.93;;;2.70;;
41927;SDS011;27616;51.420;6.788;2023-03-11T12:35:52;8.93;;;2.40;;
41927;SDS011;27616;51.420;6.788;2023-03-11T12:38:31;14.43;;;3.05;;
41927;SDS011;27616;51.420;6.788;2023-03-11T12:46:11;4.03;;;1.30;;
41927;SDS011;27616;51.420;6.788;2023-03-11T12:48:45;7.07;;;1.60;;
41927;SDS011;27616;51.420;6.788;2023-03-11T12:56:53;5.30;;;1.20;;
41927;SDS011;27616;51.420;6.788;2023-03-11T13:05:13;14.65;;;3.80;;
41927;SDS011;27616;51.420;6.788;2023-03-11T13:08:02;14.93;;;3.50;;
41927;SDS011;27616;51.420;6.788;2023-03-11T13:10:40;8.98;;;2.20;;
41927;SDS011;27616;51.420;6.788;2023-03-11T13:18:36;6.20;;;1.50;;
41927;SDS011;27616;51.420;6.788;2023-03-11T13:21:03;7.13;;;2.15;;
41927;SDS011;27616;51.420;6.788;2023-03-11T13:23:49;5.40;;;1.50;;
41927;SDS011;27616;51.420;6.788;2023-03-11T13:26:24;4.90;;;1.17;;
41927;SDS011;27616;51.420;6.788;2023-03-11T13:37:09;7.28;;;1.73;;
41927;SDS011;27616;51.420;6.788;2023-03-11T13:39:51;4.80;;;1.30;;
41927;SDS011;27616;51.420;6.788;2023-03-11T13:42:29;7.38;;;2.40;;
41927;SDS011;27616;51.420;6.788;2023-03-11T13:44:56;5.15;;;2.05;;
41927;SDS011;27616;51.420;6.788;2023-03-11T13:47:23;3.83;;;1.42;;
41927;SDS011;27616;51.420;6.788;2023-03-11T13:52:32;5.50;;;1.98;;
41927;SDS011;27616;51.420;6.788;2023-03-11T13:55:02;4.35;;;1.40;;
41927;SDS011;27616;51.420;6.788;2023-03-11T13:57:48;7.43;;;1.20;;
41927;SDS011;27616;51.420;6.788;2023-03-11T14:00:19;5.25;;;1.65;;
41927;SDS011;27616;51.420;6.788;2023-03-11T14:02:50;3.40;;;1.20;;
41927;SDS011;27616;51.420;6.788;2023-03-11T14:05:22;8.93;;;1.20;;
41927;SDS011;27616;51.420;6.788;2023-03-11T14:07:50;5.30;;;1.10;;
41927;SDS011;27616;51.420;6.788;2023-03-11T14:10:17;4.17;;;1.10;;
41927;SDS011;27616;51.420;6.788;2023-03-11T14:13:03;7.47;;;1.37;;
41927;SDS011;27616;51.420;6.788;2023-03-11T14:15:30;6.00;;;1.13;;
41927;SDS011;27616;51.420;6.788;2023-03-11T14:20:56;8.40;;;1.27;;
41927;SDS011;27616;51.420;6.788;2023-03-11T14:23:25;3.73;;;1.03;;
41927;SDS011;27616;51.420;6.788;2023-03-11T14:25:58;7.03;;;1.70;;
41927;SDS011;27616;51.420;6.788;2023-03-11T14:28:25;6.97;;;1.40;;
41927;SDS011;27616;51.420;6.788;2023-03-11T14:30:58;4.90;;;1.47;;
41927;SDS011;27616;51.420;6.788;2023-03-11T14:33:26;5.50;;;1.60;;
41927;SDS011;27616;51.420;6.788;2023-03-11T14:35:59;6.23;;;1.23;;
41927;SDS011;27616;51.420;6.788;2023-03-11T14:38:28;3.83;;;1.27;;
41927;SDS011;27616;51.420;6.788;2023-03-11T14:40:56;4.30;;;1.37;;
41927;SDS011;27616;51.420;6.788;2023-03-11T14:43:23;5.17;;;1.30;;
41927;SDS011;27616;51.420;6.788;2023-03-11T14:45:49;3.37;;;1.17;;
41927;SDS011;27616;51.420;6.788;2023-03-11T14:50:59;5.90;;;1.27;;
41927;SDS011;27616;51.420;6.788;2023-03-11T14:53:28;6.10;;;1.20;;
41927;SDS011;27616;51.420;6.788;2023-03-11T14:56:05;3.57;;;1.30;;
41927;SDS011;27616;51.420;6.788;2023-03-11T14:58:41;4.63;;;1.10;;
41927;SDS011;27616;51.420;6.788;2023-03-11T15:03:49;6.90;;;1.23;;
41927;SDS011;27616;51.420;6.788;2023-03-11T15:06:23;4.07;;;1.10;;
41927;SDS011;27616;51.420;6.788;2023-03-11T15:08:54;5.60;;;1.38;;
41927;SDS011;27616;51.420;6.788;2023-03-11T15:11:24;5.03;;;1.40;;
41927;SDS011;27616;51.420;6.788;2023-03-11T15:13:53;3.70;;;1.00;;
41927;SDS011;27616;51.420;6.788;2023-03-11T15:16:33;4.63;;;1.20;;
41927;SDS011;27616;51.420;6.788;2023-03-11T15:19:02;6.10;;;1.27;;
41927;SDS011;27616;51.420;6.788;2023-03-11T15:24:41;4.57;;;1.33;;
41927;SDS011;27616;51.420;6.788;2023-03-11T15:27:31;3.37;;;1.00;;
41927;SDS011;27616;51.420;6.788;2023-03-11T15:29:59;5.43;;;1.20;;
41927;SDS011;27616;51.420;6.788;2023-03-11T15:37:37;4.70;;;1.10;;
41927;SDS011;27616;51.420;6.788;2023-03-11T15:42:42;3.57;;;1.10;;
41927;SDS011;27616;51.420;6.788;2023-03-11T15:45:12;2.80;;;1.00;;
41927;SDS011;27616;51.420;6.788;2023-03-11T15:47:40;8.00;;;1.20;;
41927;SDS011;27616;51.420;6.788;2023-03-11T15:50:14;4.20;;;1.27;;
41927;SDS011;27616;51.420;6.788;2023-03-11T15:52:43;6.13;;;1.20;;
41927;SDS011;27616;51.420;6.788;2023-03-11T15:55:10;6.43;;;1.57;;
41927;SDS011;27616;51.420;6.788;2023-03-11T15:57:36;4.83;;;1.20;;
41927;SDS011;27616;51.420;6.788;2023-03-11T16:00:03;7.70;;;1.87;;
41927;SDS011;27616;51.420;6.788;2023-03-11T16:02:32;4.27;;;1.73;;
41927;SDS011;27616;51.420;6.788;2023-03-11T16:04:58;7.17;;;1.50;;
41927;SDS011;27616;51.420;6.788;2023-03-11T16:07:24;5.43;;;1.40;;
41927;SDS011;27616;51.420;6.788;2023-03-11T16:09:49;5.87;;;1.73;;
41927;SDS011;27616;51.420;6.788;2023-03-11T16:12:17;3.37;;;1.40;;
41927;SDS011;27616;51.420;6.788;2023-03-11T16:14:45;4.43;;;1.20;;
41927;SDS011;27616;51.420;6.788;2023-03-11T16:17:12;5.73;;;1.40;;
41927;SDS011;27616;51.420;6.788;2023-03-11T16:19:42;4.67;;;1.20;;
41927;SDS011;27616;51.420;6.788;2023-03-11T16:22:16;5.05;;;1.13;;
41927;SDS011;27616;51.420;6.788;2023-03-11T16:24:47;5.67;;;2.20;;
41927;SDS011;27616;51.420;6.788;2023-03-11T16:27:15;5.20;;;1.10;;
41927;SDS011;27616;51.420;6.788;2023-03-11T16:29:42;3.57;;;1.17;;
41927;SDS011;27616;51.420;6.788;2023-03-11T16:32:08;4.90;;;1.00;;
41927;SDS011;27616;51.420;6.788;2023-03-11T16:34:36;4.97;;;1.30;;
41927;SDS011;27616;51.420;6.788;2023-03-11T16:37:03;4.30;;;1.10;;
41927;SDS011;27616;51.420;6.788;2023-03-11T16:39:30;5.37;;;1.30;;
41927;SDS011;27616;51.420;6.788;2023-03-11T16:41:56;3.07;;;1.00;;